sensor_id;sensor_type;location;lat;lon;timestamp;P1;durP1;ratioP1;P2;durP2;ratioP2
4202;SDS011;2115;51.038;7.006;2023-06-10T00:01:12;206.07;;;57.13;;
4202;SDS011;2115;51.038;7.006;2023-06-10T00:03:37;554.20;;;152.47;;
4202;SDS011;2115;51.038;7.006;2023-06-10T00:06:03;559.70;;;158.93;;
4202;SDS011;2115;51.038;7.006;2023-06-10T00:08:29;195.63;;;55.87;;
4202;SDS011;2115;51.038;7.006;2023-06-10T00:10:56;544.50;;;147.27;;
4202;SDS011;2115;51.038;7.006;2023-06-10T00:13:22;535.20;;;141.83;;
4202;SDS011;2115;51.038;7.006;2023-06-10T00:15:47;558.43;;;158.30;;
4202;SDS011;2115;51.038;7.006;2023-06-10T00:18:12;549.63;;;152.67;;
4202;SDS011;2115;51.038;7.006;2023-06-10T00:20:38;552.70;;;156.30;;
4202;SDS011;2115;51.038;7.006;2023-06-10T00:23:04;195.17;;;55.27;;
4202;SDS011;2115;51.038;7.006;2023-06-10T00:25:31;184.73;;;48.33;;
4202;SDS011;2115;51.038;7.006;2023-06-10T00:27:58;552.30;;;157.33;;
4202;SDS011;2115;51.038;7.006;2023-06-10T00:30:23;558.63;;;154.93;;
4202;SDS011;2115;51.038;7.006;2023-06-10T00:32:48;560.37;;;159.87;;
4202;SDS011;2115;51.038;7.006;2023-06-10T00:35:14;203.20;;;56.33;;
4202;SDS011;2115;51.038;7.006;2023-06-10T00:37:42;522.97;;;135.80;;
4202;SDS011;2115;51.038;7.006;2023-06-10T00:40:07;192.97;;;50.83;;
4202;SDS011;2115;51.038;7.006;2023-06-10T00:42:36;174.43;;;45.20;;
4202;SDS011;2115;51.038;7.006;2023-06-10T00:45:01;552.03;;;153.73;;
4202;SDS011;2115;51.038;7.006;2023-06-10T00:47:27;190.87;;;52.27;;
4202;SDS011;2115;51.038;7.006;2023-06-10T00:49:53;197.43;;;54.67;;
4202;SDS011;2115;51.038;7.006;2023-06-10T00:52:19;195.70;;;51.23;;
4202;SDS011;2115;51.038;7.006;2023-06-10T00:54:45;555.57;;;151.47;;
4202;SDS011;2115;51.038;7.006;2023-06-10T00:57:10;204.57;;;57.33;;
4202;SDS011;2115;51.038;7.006;2023-06-10T00:59:38;551.70;;;150.53;;
4202;SDS011;2115;51.038;7.006;2023-06-10T01:02:08;202.43;;;52.43;;
4202;SDS011;2115;51.038;7.006;2023-06-10T01:04:34;9.73;;;5.23;;
4202;SDS011;2115;51.038;7.006;2023-06-10T01:07:34;549.20;;;149.77;;
4202;SDS011;2115;51.038;7.006;2023-06-10T01:10:33;550.20;;;151.43;;
4202;SDS011;2115;51.038;7.006;2023-06-10T01:13:03;202.63;;;55.77;;
4202;SDS011;2115;51.038;7.006;2023-06-10T01:15:33;551.37;;;151.07;;
4202;SDS011;2115;51.038;7.006;2023-06-10T01:18:03;541.23;;;148.87;;
4202;SDS011;2115;51.038;7.006;2023-06-10T01:20:32;539.87;;;148.20;;
4202;SDS011;2115;51.038;7.006;2023-06-10T01:22:58;198.87;;;53.33;;
4202;SDS011;2115;51.038;7.006;2023-06-10T01:25:26;545.83;;;146.23;;
4202;SDS011;2115;51.038;7.006;2023-06-10T01:31:07;201.00;;;55.50;;
4202;SDS011;2115;51.038;7.006;2023-06-10T01:33:37;185.60;;;48.33;;
4202;SDS011;2115;51.038;7.006;2023-06-10T01:36:05;193.43;;;53.27;;
4202;SDS011;2115;51.038;7.006;2023-06-10T01:38:32;168.60;;;45.03;;
4202;SDS011;2115;51.038;7.006;2023-06-10T01:41:01;517.73;;;138.07;;
4202;SDS011;2115;51.038;7.006;2023-06-10T01:43:28;531.27;;;141.87;;
4202;SDS011;2115;51.038;7.006;2023-06-10T01:45:53;525.80;;;141.07;;
4202;SDS011;2115;51.038;7.006;2023-06-10T01:48:19;539.80;;;147.10;;
4202;SDS011;2115;51.038;7.006;2023-06-10T01:50:44;527.67;;;141.00;;
4202;SDS011;2115;51.038;7.006;2023-06-10T01:53:10;532.60;;;141.97;;
4202;SDS011;2115;51.038;7.006;2023-06-10T01:55:35;195.00;;;53.37;;
4202;SDS011;2115;51.038;7.006;2023-06-10T01:58:01;528.53;;;141.50;;
4202;SDS011;2115;51.038;7.006;2023-06-10T02:00:26;197.03;;;52.53;;
4202;SDS011;2115;51.038;7.006;2023-06-10T02:02:51;199.77;;;54.87;;
4202;SDS011;2115;51.038;7.006;2023-06-10T02:05:18;202.83;;;54.50;;
4202;SDS011;2115;51.038;7.006;2023-06-10T02:07:44;196.83;;;53.90;;
4202;SDS011;2115;51.038;7.006;2023-06-10T02:10:09;191.33;;;49.67;;
4202;SDS011;2115;51.038;7.006;2023-06-10T02:12:35;184.83;;;48.80;;
4202;SDS011;2115;51.038;7.006;2023-06-10T02:15:00;194.40;;;52.67;;
4202;SDS011;2115;51.038;7.006;2023-06-10T02:17:26;187.97;;;52.60;;
4202;SDS011;2115;51.038;7.006;2023-06-10T02:19:51;498.83;;;126.07;;
4202;SDS011;2115;51.038;7.006;2023-06-10T02:22:23;183.73;;;49.37;;
4202;SDS011;2115;51.038;7.006;2023-06-10T02:24:48;524.10;;;140.77;;
4202;SDS011;2115;51.038;7.006;2023-06-10T02:27:17;539.13;;;144.53;;
4202;SDS011;2115;51.038;7.006;2023-06-10T02:29:43;190.07;;;51.73;;
4202;SDS011;2115;51.038;7.006;2023-06-10T02:32:09;179.47;;;47.50;;
4202;SDS011;2115;51.038;7.006;2023-06-10T02:34:35;533.70;;;143.23;;
4202;SDS011;2115;51.038;7.006;2023-06-10T02:37:01;191.40;;;52.47;;
4202;SDS011;2115;51.038;7.006;2023-06-10T02:39:27;189.03;;;52.43;;
4202;SDS011;2115;51.038;7.006;2023-06-10T02:41:53;193.47;;;52.80;;
4202;SDS011;2115;51.038;7.006;2023-06-10T02:44:18;191.50;;;50.73;;
4202;SDS011;2115;51.038;7.006;2023-06-10T02:46:44;195.10;;;52.37;;
4202;SDS011;2115;51.038;7.006;2023-06-10T02:49:09;193.77;;;53.00;;
4202;SDS011;2115;51.038;7.006;2023-06-10T02:51:35;519.53;;;138.77;;
4202;SDS011;2115;51.038;7.006;2023-06-10T02:54:02;516.33;;;137.17;;
4202;SDS011;2115;51.038;7.006;2023-06-10T02:56:27;194.77;;;53.13;;
4202;SDS011;2115;51.038;7.006;2023-06-10T02:58:53;382.97;;;97.60;;
4202;SDS011;2115;51.038;7.006;2023-06-10T03:01:18;154.50;;;41.97;;
4202;SDS011;2115;51.038;7.006;2023-06-10T03:03:44;525.13;;;141.10;;
4202;SDS011;2115;51.038;7.006;2023-06-10T03:06:11;191.73;;;53.23;;
4202;SDS011;2115;51.038;7.006;2023-06-10T03:08:37;187.27;;;50.17;;
4202;SDS011;2115;51.038;7.006;2023-06-10T03:11:04;486.77;;;123.43;;
4202;SDS011;2115;51.038;7.006;2023-06-10T03:13:29;524.67;;;138.87;;
4202;SDS011;2115;51.038;7.006;2023-06-10T03:15:55;180.40;;;46.83;;
4202;SDS011;2115;51.038;7.006;2023-06-10T03:18:20;191.87;;;51.60;;
4202;SDS011;2115;51.038;7.006;2023-06-10T03:20:48;185.27;;;48.13;;
4202;SDS011;2115;51.038;7.006;2023-06-10T03:23:14;515.13;;;136.57;;
4202;SDS011;2115;51.038;7.006;2023-06-10T03:25:40;523.63;;;138.57;;
4202;SDS011;2115;51.038;7.006;2023-06-10T03:28:09;529.13;;;139.80;;
4202;SDS011;2115;51.038;7.006;2023-06-10T03:30:35;507.17;;;129.57;;
4202;SDS011;2115;51.038;7.006;2023-06-10T03:33:01;188.17;;;51.10;;
4202;SDS011;2115;51.038;7.006;2023-06-10T03:35:26;531.00;;;139.03;;
4202;SDS011;2115;51.038;7.006;2023-06-10T03:37:52;515.93;;;135.27;;
4202;SDS011;2115;51.038;7.006;2023-06-10T03:40:17;529.07;;;141.77;;
4202;SDS011;2115;51.038;7.006;2023-06-10T03:45:10;513.50;;;133.40;;
4202;SDS011;2115;51.038;7.006;2023-06-10T03:47:36;519.23;;;137.23;;
4202;SDS011;2115;51.038;7.006;2023-06-10T03:50:06;193.37;;;53.53;;
4202;SDS011;2115;51.038;7.006;2023-06-10T03:52:33;497.60;;;130.83;;
4202;SDS011;2115;51.038;7.006;2023-06-10T03:54:58;197.43;;;50.60;;
4202;SDS011;2115;51.038;7.006;2023-06-10T03:57:24;510.10;;;133.43;;
4202;SDS011;2115;51.038;7.006;2023-06-10T03:59:49;504.60;;;130.63;;
4202;SDS011;2115;51.038;7.006;2023-06-10T04:02:15;147.13;;;39.57;;
4202;SDS011;2115;51.038;7.006;2023-06-10T04:04:41;192.13;;;52.50;;
4202;SDS011;2115;51.038;7.006;2023-06-10T04:07:06;510.43;;;135.13;;
4202;SDS011;2115;51.038;7.006;2023-06-10T04:09:33;500.03;;;128.10;;
4202;SDS011;2115;51.038;7.006;2023-06-10T04:11:58;176.33;;;47.30;;
4202;SDS011;2115;51.038;7.006;2023-06-10T04:14:24;326.73;;;72.43;;
4202;SDS011;2115;51.038;7.006;2023-06-10T04:16:49;510.43;;;134.90;;
4202;SDS011;2115;51.038;7.006;2023-06-10T04:19:18;189.43;;;51.00;;
4202;SDS011;2115;51.038;7.006;2023-06-10T04:21:43;504.67;;;129.77;;
4202;SDS011;2115;51.038;7.006;2023-06-10T04:24:09;19.50;;;5.70;;
4202;SDS011;2115;51.038;7.006;2023-06-10T04:26:35;468.57;;;118.13;;
4202;SDS011;2115;51.038;7.006;2023-06-10T04:29:00;162.70;;;40.97;;
4202;SDS011;2115;51.038;7.006;2023-06-10T04:31:26;176.60;;;45.67;;
4202;SDS011;2115;51.038;7.006;2023-06-10T04:33:51;139.30;;;35.93;;
4202;SDS011;2115;51.038;7.006;2023-06-10T04:36:16;506.07;;;135.17;;
4202;SDS011;2115;51.038;7.006;2023-06-10T04:38:42;166.10;;;41.00;;
4202;SDS011;2115;51.038;7.006;2023-06-10T04:41:07;184.07;;;49.27;;
4202;SDS011;2115;51.038;7.006;2023-06-10T04:43:32;11.13;;;4.87;;
4202;SDS011;2115;51.038;7.006;2023-06-10T04:45:58;27.23;;;7.43;;
4202;SDS011;2115;51.038;7.006;2023-06-10T04:48:23;176.60;;;45.73;;
4202;SDS011;2115;51.038;7.006;2023-06-10T04:50:49;167.17;;;45.07;;
4202;SDS011;2115;51.038;7.006;2023-06-10T04:53:15;502.60;;;135.80;;
4202;SDS011;2115;51.038;7.006;2023-06-10T04:55:41;173.30;;;46.17;;
4202;SDS011;2115;51.038;7.006;2023-06-10T04:58:07;492.07;;;131.73;;
4202;SDS011;2115;51.038;7.006;2023-06-10T05:00:32;454.87;;;115.30;;
4202;SDS011;2115;51.038;7.006;2023-06-10T05:02:57;481.80;;;122.70;;
4202;SDS011;2115;51.038;7.006;2023-06-10T05:05:23;505.63;;;134.93;;
4202;SDS011;2115;51.038;7.006;2023-06-10T05:07:48;179.03;;;47.20;;
4202;SDS011;2115;51.038;7.006;2023-06-10T05:10:13;102.80;;;24.03;;
4202;SDS011;2115;51.038;7.006;2023-06-10T05:12:39;508.73;;;137.77;;
4202;SDS011;2115;51.038;7.006;2023-06-10T05:15:06;55.13;;;16.57;;
4202;SDS011;2115;51.038;7.006;2023-06-10T05:17:32;480.40;;;127.07;;
4202;SDS011;2115;51.038;7.006;2023-06-10T05:19:57;182.83;;;49.57;;
4202;SDS011;2115;51.038;7.006;2023-06-10T05:22:23;508.87;;;134.60;;
4202;SDS011;2115;51.038;7.006;2023-06-10T05:24:52;523.13;;;136.53;;
4202;SDS011;2115;51.038;7.006;2023-06-10T05:27:18;454.83;;;111.83;;
4202;SDS011;2115;51.038;7.006;2023-06-10T05:29:43;520.00;;;139.67;;
4202;SDS011;2115;51.038;7.006;2023-06-10T05:32:08;201.83;;;55.07;;
4202;SDS011;2115;51.038;7.006;2023-06-10T05:34:34;385.87;;;100.80;;
4202;SDS011;2115;51.038;7.006;2023-06-10T05:36:59;173.87;;;47.37;;
4202;SDS011;2115;51.038;7.006;2023-06-10T05:39:25;500.33;;;136.77;;
4202;SDS011;2115;51.038;7.006;2023-06-10T05:41:50;493.37;;;137.60;;
4202;SDS011;2115;51.038;7.006;2023-06-10T05:44:16;187.93;;;53.43;;
4202;SDS011;2115;51.038;7.006;2023-06-10T05:46:41;17.97;;;6.67;;
4202;SDS011;2115;51.038;7.006;2023-06-10T05:49:06;191.53;;;53.67;;
4202;SDS011;2115;51.038;7.006;2023-06-10T05:51:32;16.30;;;6.07;;
4202;SDS011;2115;51.038;7.006;2023-06-10T05:53:57;153.67;;;43.40;;
4202;SDS011;2115;51.038;7.006;2023-06-10T05:56:23;479.57;;;136.87;;
4202;SDS011;2115;51.038;7.006;2023-06-10T05:58:48;175.50;;;49.53;;
4202;SDS011;2115;51.038;7.006;2023-06-10T06:01:14;485.70;;;138.67;;
4202;SDS011;2115;51.038;7.006;2023-06-10T06:03:40;198.47;;;54.27;;
4202;SDS011;2115;51.038;7.006;2023-06-10T06:06:05;191.27;;;54.83;;
4202;SDS011;2115;51.038;7.006;2023-06-10T06:08:31;178.80;;;50.57;;
4202;SDS011;2115;51.038;7.006;2023-06-10T06:10:56;160.83;;;43.90;;
4202;SDS011;2115;51.038;7.006;2023-06-10T06:13:22;154.97;;;42.97;;
4202;SDS011;2115;51.038;7.006;2023-06-10T06:15:47;181.97;;;51.37;;
4202;SDS011;2115;51.038;7.006;2023-06-10T06:18:13;501.13;;;146.90;;
4202;SDS011;2115;51.038;7.006;2023-06-10T06:20:38;505.97;;;147.27;;
4202;SDS011;2115;51.038;7.006;2023-06-10T06:23:04;174.93;;;50.40;;
4202;SDS011;2115;51.038;7.006;2023-06-10T06:25:29;498.27;;;142.73;;
4202;SDS011;2115;51.038;7.006;2023-06-10T06:27:54;503.80;;;144.43;;
4202;SDS011;2115;51.038;7.006;2023-06-10T06:30:20;508.37;;;153.27;;
4202;SDS011;2115;51.038;7.006;2023-06-10T06:32:45;191.90;;;55.40;;
4202;SDS011;2115;51.038;7.006;2023-06-10T06:35:10;488.83;;;141.17;;
4202;SDS011;2115;51.038;7.006;2023-06-10T06:37:36;167.33;;;47.37;;
4202;SDS011;2115;51.038;7.006;2023-06-10T06:40:01;506.90;;;151.77;;
4202;SDS011;2115;51.038;7.006;2023-06-10T06:42:27;312.83;;;81.77;;
4202;SDS011;2115;51.038;7.006;2023-06-10T06:44:52;508.80;;;151.10;;
4202;SDS011;2115;51.038;7.006;2023-06-10T06:47:18;12.33;;;5.00;;
4202;SDS011;2115;51.038;7.006;2023-06-10T06:49:47;7.20;;;4.17;;
4202;SDS011;2115;51.038;7.006;2023-06-10T06:52:13;197.93;;;57.17;;
4202;SDS011;2115;51.038;7.006;2023-06-10T06:54:40;342.57;;;98.13;;
4202;SDS011;2115;51.038;7.006;2023-06-10T06:57:05;502.87;;;147.20;;
4202;SDS011;2115;51.038;7.006;2023-06-10T06:59:32;483.27;;;142.27;;
4202;SDS011;2115;51.038;7.006;2023-06-10T07:01:57;184.93;;;55.80;;
4202;SDS011;2115;51.038;7.006;2023-06-10T07:04:23;187.80;;;58.17;;
4202;SDS011;2115;51.038;7.006;2023-06-10T07:06:48;13.13;;;5.30;;
4202;SDS011;2115;51.038;7.006;2023-06-10T07:09:14;182.13;;;52.47;;
4202;SDS011;2115;51.038;7.006;2023-06-10T07:11:39;307.73;;;87.17;;
4202;SDS011;2115;51.038;7.006;2023-06-10T07:14:05;369.40;;;93.27;;
4202;SDS011;2115;51.038;7.006;2023-06-10T07:16:31;337.33;;;94.63;;
4202;SDS011;2115;51.038;7.006;2023-06-10T07:18:56;462.37;;;127.00;;
4202;SDS011;2115;51.038;7.006;2023-06-10T07:21:22;76.53;;;20.83;;
4202;SDS011;2115;51.038;7.006;2023-06-10T07:23:48;31.47;;;8.27;;
4202;SDS011;2115;51.038;7.006;2023-06-10T07:26:14;318.17;;;89.23;;
4202;SDS011;2115;51.038;7.006;2023-06-10T07:28:39;223.87;;;67.30;;
4202;SDS011;2115;51.038;7.006;2023-06-10T07:31:05;16.03;;;5.53;;
4202;SDS011;2115;51.038;7.006;2023-06-10T07:33:31;516.07;;;150.63;;
4202;SDS011;2115;51.038;7.006;2023-06-10T07:35:57;197.13;;;40.97;;
4202;SDS011;2115;51.038;7.006;2023-06-10T07:38:22;516.73;;;146.17;;
4202;SDS011;2115;51.038;7.006;2023-06-10T07:40:47;533.37;;;153.00;;
4202;SDS011;2115;51.038;7.006;2023-06-10T07:43:13;526.57;;;147.33;;
4202;SDS011;2115;51.038;7.006;2023-06-10T07:45:41;31.90;;;8.67;;
4202;SDS011;2115;51.038;7.006;2023-06-10T07:48:07;209.53;;;51.77;;
4202;SDS011;2115;51.038;7.006;2023-06-10T07:50:32;536.13;;;153.70;;
4202;SDS011;2115;51.038;7.006;2023-06-10T07:52:58;545.63;;;160.50;;
4202;SDS011;2115;51.038;7.006;2023-06-10T07:55:23;218.90;;;62.13;;
4202;SDS011;2115;51.038;7.006;2023-06-10T07:57:50;391.03;;;106.93;;
4202;SDS011;2115;51.038;7.006;2023-06-10T08:00:16;13.53;;;5.03;;
4202;SDS011;2115;51.038;7.006;2023-06-10T08:02:42;225.07;;;63.20;;
4202;SDS011;2115;51.038;7.006;2023-06-10T08:05:07;388.53;;;112.40;;
4202;SDS011;2115;51.038;7.006;2023-06-10T08:07:33;18.17;;;5.90;;
4202;SDS011;2115;51.038;7.006;2023-06-10T08:09:58;521.20;;;151.87;;
4202;SDS011;2115;51.038;7.006;2023-06-10T08:12:24;550.70;;;164.07;;
4202;SDS011;2115;51.038;7.006;2023-06-10T08:14:49;547.43;;;162.50;;
4202;SDS011;2115;51.038;7.006;2023-06-10T08:17:14;229.30;;;64.17;;
4202;SDS011;2115;51.038;7.006;2023-06-10T08:19:40;194.23;;;55.70;;
4202;SDS011;2115;51.038;7.006;2023-06-10T08:22:05;206.43;;;56.53;;
4202;SDS011;2115;51.038;7.006;2023-06-10T08:24:31;220.40;;;62.30;;
4202;SDS011;2115;51.038;7.006;2023-06-10T08:26:56;564.40;;;171.80;;
4202;SDS011;2115;51.038;7.006;2023-06-10T08:29:22;196.10;;;57.97;;
4202;SDS011;2115;51.038;7.006;2023-06-10T08:31:48;547.77;;;168.80;;
4202;SDS011;2115;51.038;7.006;2023-06-10T08:34:13;124.33;;;33.13;;
4202;SDS011;2115;51.038;7.006;2023-06-10T08:36:39;572.83;;;179.33;;
4202;SDS011;2115;51.038;7.006;2023-06-10T08:39:04;222.87;;;63.30;;
4202;SDS011;2115;51.038;7.006;2023-06-10T08:41:30;513.63;;;157.10;;
4202;SDS011;2115;51.038;7.006;2023-06-10T08:44:03;224.50;;;64.60;;
4202;SDS011;2115;51.038;7.006;2023-06-10T08:46:35;80.50;;;18.77;;
4202;SDS011;2115;51.038;7.006;2023-06-10T08:49:02;70.27;;;20.93;;
4202;SDS011;2115;51.038;7.006;2023-06-10T08:51:29;503.03;;;151.17;;
4202;SDS011;2115;51.038;7.006;2023-06-10T08:54:17;544.83;;;165.43;;
4202;SDS011;2115;51.038;7.006;2023-06-10T08:56:46;487.67;;;148.57;;
4202;SDS011;2115;51.038;7.006;2023-06-10T08:59:13;522.93;;;157.10;;
4202;SDS011;2115;51.038;7.006;2023-06-10T09:01:41;573.20;;;182.90;;
4202;SDS011;2115;51.038;7.006;2023-06-10T09:04:07;542.30;;;174.73;;
4202;SDS011;2115;51.038;7.006;2023-06-10T09:06:32;521.80;;;167.33;;
4202;SDS011;2115;51.038;7.006;2023-06-10T09:08:59;533.50;;;165.53;;
4202;SDS011;2115;51.038;7.006;2023-06-10T09:11:24;24.87;;;6.83;;
4202;SDS011;2115;51.038;7.006;2023-06-10T09:13:50;537.17;;;164.80;;
4202;SDS011;2115;51.038;7.006;2023-06-10T09:16:16;554.43;;;176.47;;
4202;SDS011;2115;51.038;7.006;2023-06-10T09:18:41;18.90;;;7.03;;
4202;SDS011;2115;51.038;7.006;2023-06-10T09:21:07;196.37;;;57.57;;
4202;SDS011;2115;51.038;7.006;2023-06-10T09:23:32;333.13;;;100.03;;
4202;SDS011;2115;51.038;7.006;2023-06-10T09:25:58;558.70;;;181.27;;
4202;SDS011;2115;51.038;7.006;2023-06-10T09:28:24;564.63;;;184.33;;
4202;SDS011;2115;51.038;7.006;2023-06-10T09:30:49;552.77;;;182.23;;
4202;SDS011;2115;51.038;7.006;2023-06-10T09:33:15;24.73;;;9.10;;
4202;SDS011;2115;51.038;7.006;2023-06-10T09:35:47;566.87;;;190.80;;
4202;SDS011;2115;51.038;7.006;2023-06-10T09:38:15;537.63;;;185.17;;
4202;SDS011;2115;51.038;7.006;2023-06-10T09:40:52;545.33;;;187.60;;
4202;SDS011;2115;51.038;7.006;2023-06-10T09:43:18;455.87;;;136.13;;
4202;SDS011;2115;51.038;7.006;2023-06-10T09:45:44;406.10;;;132.57;;
4202;SDS011;2115;51.038;7.006;2023-06-10T09:48:09;197.47;;;60.87;;
4202;SDS011;2115;51.038;7.006;2023-06-10T09:50:41;562.33;;;199.17;;
4202;SDS011;2115;51.038;7.006;2023-06-10T09:53:08;544.40;;;182.63;;
4202;SDS011;2115;51.038;7.006;2023-06-10T09:55:33;510.93;;;161.97;;
4202;SDS011;2115;51.038;7.006;2023-06-10T09:57:59;9.00;;;4.80;;
4202;SDS011;2115;51.038;7.006;2023-06-10T10:00:25;575.03;;;203.20;;
4202;SDS011;2115;51.038;7.006;2023-06-10T10:02:51;554.07;;;190.97;;
4202;SDS011;2115;51.038;7.006;2023-06-10T10:05:19;499.63;;;172.60;;
4202;SDS011;2115;51.038;7.006;2023-06-10T10:07:46;498.73;;;177.07;;
4202;SDS011;2115;51.038;7.006;2023-06-10T10:10:13;577.00;;;216.40;;
4202;SDS011;2115;51.038;7.006;2023-06-10T10:12:39;584.20;;;219.43;;
4202;SDS011;2115;51.038;7.006;2023-06-10T10:15:09;522.07;;;217.50;;
4202;SDS011;2115;51.038;7.006;2023-06-10T10:18:00;631.83;;;338.73;;
4202;SDS011;2115;51.038;7.006;2023-06-10T10:20:26;633.60;;;340.83;;
4202;SDS011;2115;51.038;7.006;2023-06-10T10:22:56;631.13;;;337.47;;
4202;SDS011;2115;51.038;7.006;2023-06-10T10:25:29;586.60;;;299.57;;
4202;SDS011;2115;51.038;7.006;2023-06-10T10:28:06;637.20;;;344.10;;
4202;SDS011;2115;51.038;7.006;2023-06-10T10:30:37;573.20;;;291.20;;
4202;SDS011;2115;51.038;7.006;2023-06-10T10:33:16;622.33;;;332.93;;
4202;SDS011;2115;51.038;7.006;2023-06-10T10:35:43;630.30;;;340.40;;
4202;SDS011;2115;51.038;7.006;2023-06-10T10:38:11;627.53;;;345.40;;
4202;SDS011;2115;51.038;7.006;2023-06-10T10:40:36;627.57;;;342.40;;
4202;SDS011;2115;51.038;7.006;2023-06-10T10:43:02;628.17;;;337.67;;
4202;SDS011;2115;51.038;7.006;2023-06-10T10:45:30;636.20;;;343.60;;
4202;SDS011;2115;51.038;7.006;2023-06-10T10:48:04;630.23;;;342.40;;
4202;SDS011;2115;51.038;7.006;2023-06-10T10:50:35;625.10;;;347.53;;
4202;SDS011;2115;51.038;7.006;2023-06-10T10:53:01;615.47;;;341.67;;
4202;SDS011;2115;51.038;7.006;2023-06-10T10:55:28;626.63;;;356.37;;
4202;SDS011;2115;51.038;7.006;2023-06-10T11:00:32;627.57;;;367.53;;
4202;SDS011;2115;51.038;7.006;2023-06-10T11:03:00;632.07;;;373.90;;
4202;SDS011;2115;51.038;7.006;2023-06-10T11:05:41;627.90;;;369.70;;
4202;SDS011;2115;51.038;7.006;2023-06-10T11:08:09;628.97;;;367.13;;
4202;SDS011;2115;51.038;7.006;2023-06-10T11:10:36;579.20;;;317.90;;
4202;SDS011;2115;51.038;7.006;2023-06-10T11:13:06;570.00;;;309.03;;
4202;SDS011;2115;51.038;7.006;2023-06-10T11:15:33;615.53;;;360.73;;
4202;SDS011;2115;51.038;7.006;2023-06-10T11:18:08;614.97;;;353.23;;
4202;SDS011;2115;51.038;7.006;2023-06-10T11:29:01;561.83;;;322.27;;
4202;SDS011;2115;51.038;7.006;2023-06-10T11:31:28;632.03;;;380.10;;
4202;SDS011;2115;51.038;7.006;2023-06-10T11:33:55;630.33;;;380.17;;
4202;SDS011;2115;51.038;7.006;2023-06-10T11:36:21;622.73;;;358.17;;
4202;SDS011;2115;51.038;7.006;2023-06-10T11:38:49;637.23;;;367.40;;
4202;SDS011;2115;51.038;7.006;2023-06-10T11:41:15;631.70;;;366.93;;
4202;SDS011;2115;51.038;7.006;2023-06-10T11:43:43;589.63;;;317.80;;
4202;SDS011;2115;51.038;7.006;2023-06-10T11:46:09;637.37;;;368.53;;
4202;SDS011;2115;51.038;7.006;2023-06-10T11:48:35;637.73;;;361.63;;
4202;SDS011;2115;51.038;7.006;2023-06-10T11:51:00;632.60;;;359.07;;
4202;SDS011;2115;51.038;7.006;2023-06-10T11:53:26;629.43;;;353.23;;
4202;SDS011;2115;51.038;7.006;2023-06-10T11:55:53;626.07;;;347.23;;
4202;SDS011;2115;51.038;7.006;2023-06-10T11:58:22;637.03;;;363.17;;
4202;SDS011;2115;51.038;7.006;2023-06-10T12:00:48;634.90;;;367.00;;
4202;SDS011;2115;51.038;7.006;2023-06-10T12:03:15;632.47;;;364.37;;
4202;SDS011;2115;51.038;7.006;2023-06-10T12:05:53;622.20;;;349.70;;
4202;SDS011;2115;51.038;7.006;2023-06-10T12:08:26;628.63;;;376.60;;
4202;SDS011;2115;51.038;7.006;2023-06-10T12:10:52;517.73;;;280.57;;
4202;SDS011;2115;51.038;7.006;2023-06-10T12:13:18;504.73;;;235.77;;
4202;SDS011;2115;51.038;7.006;2023-06-10T12:15:43;504.17;;;245.10;;
4202;SDS011;2115;51.038;7.006;2023-06-10T12:18:16;563.03;;;297.33;;
4202;SDS011;2115;51.038;7.006;2023-06-10T12:20:42;568.53;;;334.03;;
4202;SDS011;2115;51.038;7.006;2023-06-10T12:23:08;563.07;;;336.33;;
4202;SDS011;2115;51.038;7.006;2023-06-10T12:25:34;589.10;;;359.70;;
4202;SDS011;2115;51.038;7.006;2023-06-10T12:28:02;582.10;;;376.60;;
4202;SDS011;2115;51.038;7.006;2023-06-10T12:30:28;571.17;;;349.60;;
4202;SDS011;2115;51.038;7.006;2023-06-10T12:32:54;563.50;;;341.00;;
4202;SDS011;2115;51.038;7.006;2023-06-10T12:35:21;557.30;;;347.70;;
4202;SDS011;2115;51.038;7.006;2023-06-10T12:37:59;556.10;;;343.33;;
4202;SDS011;2115;51.038;7.006;2023-06-10T12:40:36;555.87;;;340.50;;
4202;SDS011;2115;51.038;7.006;2023-06-10T12:43:04;482.40;;;282.77;;
4202;SDS011;2115;51.038;7.006;2023-06-10T12:45:33;557.90;;;356.20;;
4202;SDS011;2115;51.038;7.006;2023-06-10T12:50:42;553.83;;;350.57;;
4202;SDS011;2115;51.038;7.006;2023-06-10T12:53:08;558.00;;;352.80;;
4202;SDS011;2115;51.038;7.006;2023-06-10T12:55:36;568.53;;;365.30;;
4202;SDS011;2115;51.038;7.006;2023-06-10T12:58:01;578.93;;;360.10;;
4202;SDS011;2115;51.038;7.006;2023-06-10T13:00:28;586.60;;;375.57;;
4202;SDS011;2115;51.038;7.006;2023-06-10T13:02:55;596.53;;;374.17;;
4202;SDS011;2115;51.038;7.006;2023-06-10T13:05:27;598.17;;;360.77;;
4202;SDS011;2115;51.038;7.006;2023-06-10T13:07:53;610.30;;;384.00;;
4202;SDS011;2115;51.038;7.006;2023-06-10T13:10:20;613.13;;;377.93;;
4202;SDS011;2115;51.038;7.006;2023-06-10T13:12:46;610.00;;;365.27;;
4202;SDS011;2115;51.038;7.006;2023-06-10T13:15:12;597.17;;;343.70;;
4202;SDS011;2115;51.038;7.006;2023-06-10T13:17:37;584.13;;;332.67;;
4202;SDS011;2115;51.038;7.006;2023-06-10T13:20:04;594.73;;;369.77;;
4202;SDS011;2115;51.038;7.006;2023-06-10T13:22:30;588.13;;;352.57;;
4202;SDS011;2115;51.038;7.006;2023-06-10T13:25:00;578.70;;;357.93;;
4202;SDS011;2115;51.038;7.006;2023-06-10T13:27:26;567.73;;;345.40;;
4202;SDS011;2115;51.038;7.006;2023-06-10T13:29:52;559.30;;;355.90;;
4202;SDS011;2115;51.038;7.006;2023-06-10T13:32:18;550.00;;;352.13;;
4202;SDS011;2115;51.038;7.006;2023-06-10T13:34:43;540.60;;;353.87;;
4202;SDS011;2115;51.038;7.006;2023-06-10T13:37:09;541.53;;;360.50;;
4202;SDS011;2115;51.038;7.006;2023-06-10T13:39:34;552.20;;;370.77;;
4202;SDS011;2115;51.038;7.006;2023-06-10T13:42:00;545.77;;;357.83;;
4202;SDS011;2115;51.038;7.006;2023-06-10T13:44:25;550.90;;;365.83;;
4202;SDS011;2115;51.038;7.006;2023-06-10T13:46:51;557.90;;;368.97;;
4202;SDS011;2115;51.038;7.006;2023-06-10T13:49:16;565.80;;;381.97;;
4202;SDS011;2115;51.038;7.006;2023-06-10T13:51:44;564.90;;;360.30;;
4202;SDS011;2115;51.038;7.006;2023-06-10T13:54:10;582.93;;;388.17;;
4202;SDS011;2115;51.038;7.006;2023-06-10T13:56:37;588.67;;;389.27;;
4202;SDS011;2115;51.038;7.006;2023-06-10T13:59:03;578.47;;;378.87;;
4202;SDS011;2115;51.038;7.006;2023-06-10T14:01:29;577.13;;;367.10;;
4202;SDS011;2115;51.038;7.006;2023-06-10T14:03:54;574.10;;;377.80;;
4202;SDS011;2115;51.038;7.006;2023-06-10T14:06:20;574.73;;;373.73;;
4202;SDS011;2115;51.038;7.006;2023-06-10T14:08:46;567.20;;;371.90;;
4202;SDS011;2115;51.038;7.006;2023-06-10T14:11:11;571.27;;;375.27;;
4202;SDS011;2115;51.038;7.006;2023-06-10T14:13:37;563.90;;;377.60;;
4202;SDS011;2115;51.038;7.006;2023-06-10T14:16:03;556.50;;;363.43;;
4202;SDS011;2115;51.038;7.006;2023-06-10T14:18:29;552.17;;;364.33;;
4202;SDS011;2115;51.038;7.006;2023-06-10T14:20:55;544.60;;;368.83;;
4202;SDS011;2115;51.038;7.006;2023-06-10T14:23:20;551.43;;;373.23;;
4202;SDS011;2115;51.038;7.006;2023-06-10T14:25:46;551.33;;;380.53;;
4202;SDS011;2115;51.038;7.006;2023-06-10T14:28:11;550.63;;;375.97;;
4202;SDS011;2115;51.038;7.006;2023-06-10T14:30:38;552.50;;;373.20;;
4202;SDS011;2115;51.038;7.006;2023-06-10T14:33:03;547.73;;;373.43;;
4202;SDS011;2115;51.038;7.006;2023-06-10T14:35:28;559.10;;;375.70;;
4202;SDS011;2115;51.038;7.006;2023-06-10T14:37:54;550.33;;;382.17;;
4202;SDS011;2115;51.038;7.006;2023-06-10T14:40:19;555.07;;;379.87;;
4202;SDS011;2115;51.038;7.006;2023-06-10T14:42:47;558.00;;;394.57;;
4202;SDS011;2115;51.038;7.006;2023-06-10T14:45:13;546.23;;;378.20;;